createdAt,value
2017-10-29T00:00:48.688Z,1.67
2017-10-29T00:03:16.179Z,1.80
2017-10-29T00:05:43.721Z,2.30
2017-10-29T00:08:11.196Z,1.80
2017-10-29T00:10:38.690Z,1.70
2017-10-29T00:13:06.181Z,1.73
2017-10-29T00:15:33.685Z,1.73
2017-10-29T00:18:01.189Z,1.50
2017-10-29T00:20:29.063Z,1.70
2017-10-29T00:22:56.561Z,1.70
2017-10-29T00:25:24.087Z,1.50
2017-10-29T00:27:51.593Z,1.60
2017-10-29T00:30:19.095Z,1.87
2017-10-29T00:32:46.587Z,1.93
2017-10-29T00:35:14.071Z,1.50
2017-10-29T00:37:41.580Z,1.50
2017-10-29T00:40:09.053Z,1.50
2017-10-29T00:42:36.562Z,1.60
2017-10-29T00:45:04.063Z,2.40
2017-10-29T00:47:31.554Z,2.03
2017-10-29T00:49:59.047Z,2.30
2017-10-29T00:52:26.546Z,1.97
2017-10-29T00:54:54.041Z,1.60
2017-10-29T00:57:21.539Z,1.77
2017-10-29T00:59:49.055Z,2.17
2017-10-29T01:02:16.550Z,1.67
2017-10-29T01:04:44.058Z,2.00
2017-10-29T01:07:11.555Z,2.40
2017-10-29T01:09:39.069Z,2.40
2017-10-29T01:12:06.584Z,2.17
2017-10-29T01:14:34.160Z,2.07
2017-10-29T01:17:01.665Z,2.10
2017-10-29T01:19:29.189Z,2.00
2017-10-29T01:21:56.668Z,2.27
2017-10-29T01:24:24.182Z,2.00
2017-10-29T01:26:51.667Z,1.60
2017-10-29T01:29:19.248Z,1.90
2017-10-29T01:31:46.728Z,2.47
2017-10-29T01:34:14.230Z,2.47
2017-10-29T01:36:41.742Z,2.33
2017-10-29T01:39:09.249Z,2.23
2017-10-29T01:41:36.730Z,2.23
2017-10-29T01:44:04.249Z,2.10
2017-10-29T01:46:31.746Z,2.03
2017-10-29T01:48:59.241Z,2.77
2017-10-29T01:51:26.738Z,2.73
2017-10-29T01:53:54.217Z,1.80
2017-10-29T01:56:21.720Z,2.17
2017-10-29T01:58:49.218Z,2.30
2017-10-29T02:01:16.709Z,1.93
2017-10-29T02:03:44.194Z,2.10
2017-10-29T02:06:11.695Z,1.90
2017-10-29T02:08:39.190Z,2.37
2017-10-29T02:11:06.681Z,1.90
2017-10-29T02:13:34.183Z,2.00
2017-10-29T02:16:01.689Z,1.63
2017-10-29T02:18:29.190Z,1.47
2017-10-29T02:20:56.673Z,1.47
2017-10-29T02:23:24.170Z,1.53
2017-10-29T02:25:51.673Z,1.50
2017-10-29T02:28:19.163Z,1.60
2017-10-29T02:30:46.688Z,1.30
2017-10-29T02:33:14.222Z,1.00
2017-10-29T02:35:41.735Z,1.27
2017-10-29T02:38:09.240Z,1.50
2017-10-29T02:40:36.746Z,1.17
2017-10-29T02:43:04.239Z,1.10
2017-10-29T02:45:31.746Z,1.23
2017-10-29T02:47:59.237Z,1.20
2017-10-29T02:50:26.743Z,1.13
2017-10-29T02:52:54.249Z,1.13
2017-10-29T02:55:21.757Z,1.40
2017-10-29T02:57:49.259Z,1.20
2017-10-29T03:00:16.767Z,1.10
2017-10-29T03:02:44.261Z,1.00
2017-10-29T03:05:11.761Z,0.97
2017-10-29T03:07:39.244Z,1.30
2017-10-29T03:10:06.737Z,1.20
2017-10-29T03:12:34.219Z,0.80
2017-10-29T03:15:01.722Z,0.73
2017-10-29T03:17:29.227Z,0.90
2017-10-29T03:19:56.720Z,1.10
2017-10-29T03:22:24.214Z,1.07
2017-10-29T03:24:51.712Z,0.90
2017-10-29T03:27:19.208Z,1.00
2017-10-29T03:29:46.704Z,1.33
2017-10-29T03:32:14.202Z,1.00
2017-10-29T03:34:41.693Z,1.00
2017-10-29T03:37:09.191Z,0.80
2017-10-29T03:39:36.677Z,0.90
2017-10-29T03:42:04.200Z,1.20
2017-10-29T03:44:31.693Z,0.60
2017-10-29T03:46:59.179Z,0.70
2017-10-29T03:49:26.661Z,0.77
2017-10-29T03:51:54.169Z,0.70
2017-10-29T03:54:21.659Z,0.93
2017-10-29T03:56:49.146Z,0.60
2017-10-29T03:59:16.639Z,0.80
2017-10-29T04:01:44.159Z,0.70
2017-10-29T04:04:11.657Z,1.20
2017-10-29T04:06:39.158Z,0.80
2017-10-29T04:09:06.670Z,0.60
2017-10-29T04:11:34.178Z,0.70
2017-10-29T04:14:01.681Z,0.70
2017-10-29T04:16:29.187Z,0.70
2017-10-29T04:18:56.688Z,0.77
2017-10-29T04:21:24.202Z,0.70
2017-10-29T04:23:51.689Z,1.20
2017-10-29T04:26:19.187Z,0.77
2017-10-29T04:28:46.707Z,0.57
2017-10-29T04:31:14.203Z,0.60
2017-10-29T04:33:41.696Z,0.87
2017-10-29T04:36:09.189Z,0.90
2017-10-29T04:38:36.712Z,0.83
2017-10-29T04:41:04.206Z,0.90
2017-10-29T04:43:31.699Z,0.93
2017-10-29T04:45:59.218Z,5.20
2017-10-29T04:48:26.759Z,0.90
2017-10-29T04:50:54.249Z,0.60
2017-10-29T04:53:21.754Z,0.67
2017-10-29T04:55:49.267Z,0.70
2017-10-29T04:58:16.756Z,0.67
2017-10-29T05:00:44.263Z,0.93
2017-10-29T05:03:11.786Z,0.60
2017-10-29T05:05:39.275Z,0.80
2017-10-29T05:08:06.774Z,0.90
2017-10-29T05:10:34.262Z,0.60
2017-10-29T05:13:01.762Z,0.80
2017-10-29T05:15:29.281Z,0.83
2017-10-29T05:17:56.780Z,0.70
2017-10-29T05:20:24.328Z,0.70
2017-10-29T05:22:51.832Z,0.63
2017-10-29T05:25:19.344Z,0.70
2017-10-29T05:27:46.862Z,1.20
2017-10-29T05:30:14.366Z,0.80
2017-10-29T05:32:41.894Z,1.10
2017-10-29T05:35:09.384Z,1.17
2017-10-29T05:37:37.046Z,0.97
2017-10-29T05:40:04.555Z,0.90
2017-10-29T05:42:32.053Z,0.70
2017-10-29T05:44:59.563Z,0.70
2017-10-29T05:47:27.057Z,1.30
2017-10-29T05:49:54.554Z,0.83
2017-10-29T05:52:22.054Z,3.00
2017-10-29T05:54:49.920Z,0.97
2017-10-29T05:57:17.426Z,1.13
2017-10-29T05:59:44.918Z,0.80
2017-10-29T06:02:12.793Z,0.90
2017-10-29T06:04:40.306Z,1.40
2017-10-29T06:07:07.790Z,0.70
2017-10-29T06:09:35.315Z,0.97
2017-10-29T06:12:02.823Z,0.90
2017-10-29T06:14:30.317Z,0.80
2017-10-29T06:16:57.803Z,0.93
2017-10-29T06:19:25.314Z,0.97
2017-10-29T06:21:52.803Z,1.10
2017-10-29T06:24:20.304Z,1.17
2017-10-29T06:26:47.815Z,0.93
2017-10-29T06:29:15.303Z,1.30
2017-10-29T06:31:42.823Z,1.10
2017-10-29T06:34:10.350Z,1.03
2017-10-29T06:36:37.845Z,1.43
2017-10-29T06:39:05.335Z,1.40
2017-10-29T06:41:32.819Z,1.20
2017-10-29T06:44:00.331Z,1.83
2017-10-29T06:46:27.842Z,4.50
2017-10-29T06:48:55.350Z,1.90
2017-10-29T06:51:22.843Z,1.80
2017-10-29T06:53:50.346Z,1.50
2017-10-29T06:56:17.830Z,1.80
2017-10-29T06:58:45.331Z,1.20
2017-10-29T07:01:12.819Z,1.40
2017-10-29T07:03:40.298Z,1.30
2017-10-29T07:06:07.789Z,1.00
2017-10-29T07:08:35.316Z,1.20
2017-10-29T07:11:02.883Z,1.20
2017-10-29T07:13:30.393Z,1.47
2017-10-29T07:15:57.869Z,1.30
2017-10-29T07:18:25.358Z,1.37
2017-10-29T07:20:52.856Z,2.27
2017-10-29T07:23:20.353Z,1.03
2017-10-29T07:25:47.899Z,0.93
2017-10-29T07:28:15.402Z,1.07
2017-10-29T07:30:42.902Z,1.10
2017-10-29T07:33:10.414Z,1.10
2017-10-29T07:35:37.890Z,1.20
2017-10-29T07:38:05.386Z,1.00
2017-10-29T07:40:32.923Z,1.10
2017-10-29T07:43:00.424Z,0.80
2017-10-29T07:45:27.931Z,0.80
2017-10-29T07:47:55.442Z,0.90
2017-10-29T07:50:22.940Z,0.93
2017-10-29T07:52:50.426Z,0.87
2017-10-29T07:55:17.950Z,1.10
2017-10-29T07:57:45.442Z,0.80
2017-10-29T08:00:12.933Z,0.80
2017-10-29T08:02:40.437Z,1.27
2017-10-29T08:05:07.943Z,1.07
2017-10-29T08:07:35.929Z,1.00
2017-10-29T08:10:03.428Z,0.80
2017-10-29T08:12:30.918Z,0.93
2017-10-29T08:14:58.443Z,0.97
2017-10-29T08:17:25.938Z,1.13
2017-10-29T08:19:53.438Z,1.00
2017-10-29T08:22:20.928Z,0.80
2017-10-29T08:24:48.454Z,3.87
2017-10-29T08:27:15.962Z,0.70
2017-10-29T08:29:43.454Z,1.00
2017-10-29T08:32:10.961Z,0.70
2017-10-29T08:34:38.478Z,0.60
2017-10-29T08:37:05.987Z,0.80
2017-10-29T08:39:33.498Z,0.70
2017-10-29T08:42:01.009Z,0.93
2017-10-29T08:44:28.528Z,0.70
2017-10-29T08:46:56.905Z,0.70
2017-10-29T08:49:24.433Z,0.70
2017-10-29T08:51:51.941Z,0.80
2017-10-29T08:54:19.440Z,0.80
2017-10-29T08:56:46.949Z,0.73
2017-10-29T08:59:14.455Z,0.43
2017-10-29T09:01:41.985Z,0.53
2017-10-29T09:04:09.477Z,0.60
2017-10-29T09:06:36.999Z,0.70
2017-10-29T09:09:04.498Z,0.60
2017-10-29T09:11:32.039Z,0.40
2017-10-29T09:13:59.610Z,0.53
2017-10-29T09:16:27.152Z,0.50
2017-10-29T09:18:54.643Z,0.60
2017-10-29T09:21:22.147Z,0.60
2017-10-29T09:23:49.637Z,0.70
2017-10-29T09:26:17.135Z,0.50
2017-10-29T09:28:44.663Z,0.60
2017-10-29T09:31:12.172Z,0.40
2017-10-29T09:33:39.704Z,0.50
2017-10-29T09:36:07.205Z,0.50
2017-10-29T09:38:34.734Z,0.40
2017-10-29T09:41:02.243Z,0.40
2017-10-29T09:43:29.790Z,0.43
2017-10-29T09:45:57.310Z,0.40
2017-10-29T09:48:24.830Z,0.47
2017-10-29T09:50:53.081Z,0.47
2017-10-29T09:53:20.602Z,0.60
2017-10-29T09:55:48.110Z,0.50
2017-10-29T09:58:15.636Z,0.63
2017-10-29T10:00:43.214Z,0.50
2017-10-29T10:03:10.834Z,0.50
2017-10-29T10:05:38.341Z,0.43
2017-10-29T10:08:05.875Z,0.40
2017-10-29T10:10:33.406Z,0.50
2017-10-29T10:13:00.899Z,0.70
2017-10-29T10:15:28.413Z,1.20
2017-10-29T10:17:55.947Z,0.80
2017-10-29T10:20:23.451Z,0.97
2017-10-29T10:22:50.974Z,2.13
2017-10-29T10:25:18.476Z,0.97
2017-10-29T10:27:46.010Z,1.00
2017-10-29T10:30:13.524Z,1.30
2017-10-29T10:32:41.023Z,1.30
2017-10-29T10:35:08.537Z,1.40
2017-10-29T10:37:36.051Z,1.60
2017-10-29T10:40:03.595Z,1.03
2017-10-29T10:42:31.082Z,0.93
2017-10-29T10:44:58.603Z,0.90
2017-10-29T10:47:26.433Z,1.40
2017-10-29T10:49:53.955Z,1.60
2017-10-29T10:52:21.450Z,1.37
2017-10-29T10:54:48.980Z,1.30
2017-10-29T10:57:16.478Z,1.50
2017-10-29T10:59:44.018Z,1.50
2017-10-29T11:02:11.529Z,1.60
2017-10-29T11:04:41.911Z,7.23
2017-10-29T11:07:09.405Z,8.03
2017-10-29T11:09:36.917Z,2.50
2017-10-29T11:12:04.431Z,2.17
2017-10-29T11:14:31.942Z,7.40
2017-10-29T11:16:59.944Z,3.43
2017-10-29T11:19:27.467Z,7.97
2017-10-29T11:21:55.008Z,13.50
2017-10-29T11:24:22.505Z,7.50
2017-10-29T11:26:50.247Z,1.73
2017-10-29T11:29:17.780Z,2.73
2017-10-29T11:31:45.329Z,2.00
2017-10-29T11:34:12.895Z,1.97
2017-10-29T11:36:40.453Z,3.60
2017-10-29T11:39:07.980Z,1.60
2017-10-29T11:41:35.553Z,1.90
2017-10-29T11:44:03.106Z,2.20
2017-10-29T11:46:30.610Z,1.60
2017-10-29T11:48:58.163Z,1.57
2017-10-29T11:51:25.819Z,1.90
2017-10-29T11:53:53.340Z,1.80
2017-10-29T11:56:20.909Z,1.57
2017-10-29T11:58:48.458Z,2.20
2017-10-29T12:01:15.989Z,2.60
2017-10-29T12:03:43.478Z,4.57
2017-10-29T12:06:11.004Z,1.93
2017-10-29T12:08:38.548Z,2.57
2017-10-29T12:11:06.054Z,2.57
2017-10-29T12:13:33.554Z,2.60
2017-10-29T12:16:01.085Z,2.80
2017-10-29T12:18:28.590Z,2.83
2017-10-29T12:20:56.106Z,2.63
2017-10-29T12:23:23.626Z,2.47
2017-10-29T12:25:51.155Z,2.70
2017-10-29T12:28:18.685Z,2.90
2017-10-29T12:30:46.212Z,2.70
2017-10-29T12:33:13.714Z,3.43
2017-10-29T12:35:41.229Z,3.20
2017-10-29T12:38:08.734Z,3.43
2017-10-29T12:40:36.473Z,2.83
2017-10-29T12:43:03.979Z,3.70
2017-10-29T12:45:31.493Z,3.07
2017-10-29T12:47:59.010Z,3.23
2017-10-29T12:50:26.527Z,3.80
2017-10-29T12:52:54.152Z,3.37
2017-10-29T12:55:21.666Z,4.13
2017-10-29T12:57:49.196Z,3.37
2017-10-29T13:00:16.714Z,4.10
2017-10-29T13:02:44.245Z,4.67
2017-10-29T13:05:11.753Z,3.73
2017-10-29T13:07:39.246Z,4.27
2017-10-29T13:10:06.754Z,3.43
2017-10-29T13:12:34.288Z,3.90
2017-10-29T13:15:01.793Z,3.43
2017-10-29T13:17:29.457Z,3.70
2017-10-29T13:19:57.007Z,3.20
2017-10-29T13:22:24.503Z,4.27
2017-10-29T13:24:52.022Z,4.80
2017-10-29T13:27:19.578Z,3.70
2017-10-29T13:29:47.198Z,5.07
2017-10-29T13:32:14.010Z,3.60
2017-10-29T13:34:41.552Z,4.20
2017-10-29T13:37:09.054Z,4.07
2017-10-29T13:39:36.588Z,4.77
2017-10-29T13:42:04.107Z,4.60
2017-10-29T13:44:31.641Z,4.17
2017-10-29T13:46:59.156Z,3.70
2017-10-29T13:49:26.696Z,4.90
2017-10-29T13:51:54.227Z,3.73
2017-10-29T13:54:21.746Z,4.40
2017-10-29T13:56:49.260Z,4.70
2017-10-29T13:59:16.762Z,3.40
2017-10-29T14:01:44.280Z,4.70
2017-10-29T14:04:11.783Z,4.23
2017-10-29T14:06:39.318Z,4.87
2017-10-29T14:09:06.838Z,5.30
2017-10-29T14:11:34.380Z,3.63
2017-10-29T14:14:01.911Z,3.83
2017-10-29T14:16:29.404Z,4.70
2017-10-29T14:18:56.904Z,3.63
2017-10-29T14:21:24.402Z,3.13
2017-10-29T14:23:51.929Z,4.07
2017-10-29T14:26:19.463Z,3.50
2017-10-29T14:28:46.990Z,4.30
2017-10-29T14:31:14.505Z,4.57
2017-10-29T14:33:42.037Z,3.60
2017-10-29T14:36:09.567Z,4.60
2017-10-29T14:38:37.112Z,4.30
2017-10-29T14:41:04.631Z,4.17
2017-10-29T14:43:32.155Z,4.10
2017-10-29T14:45:59.671Z,3.83
2017-10-29T14:48:27.235Z,3.57
2017-10-29T14:50:54.766Z,3.20
2017-10-29T14:53:22.294Z,3.23
2017-10-29T14:55:49.805Z,4.13
2017-10-29T14:58:17.424Z,4.77
2017-10-29T15:00:45.083Z,4.73
2017-10-29T15:03:12.578Z,3.50
2017-10-29T15:05:40.130Z,4.17
2017-10-29T15:08:07.656Z,3.30
2017-10-29T15:10:35.171Z,3.40
2017-10-29T15:13:02.690Z,3.87
2017-10-29T15:15:30.209Z,4.07
2017-10-29T15:17:57.704Z,3.80
2017-10-29T15:20:25.219Z,5.60
2017-10-29T15:22:52.723Z,7.07
2017-10-29T15:25:20.257Z,4.67
2017-10-29T15:27:47.760Z,3.30
2017-10-29T15:30:15.262Z,3.10
2017-10-29T15:32:42.782Z,3.40
2017-10-29T15:35:10.326Z,3.80
2017-10-29T15:37:37.825Z,3.37
2017-10-29T15:40:05.328Z,3.43
2017-10-29T15:42:32.827Z,3.00
2017-10-29T15:45:00.342Z,3.17
2017-10-29T15:47:27.850Z,2.60
2017-10-29T15:49:55.358Z,3.53
2017-10-29T15:52:22.896Z,3.40
2017-10-29T15:54:50.451Z,2.57
2017-10-29T15:57:17.964Z,3.17
2017-10-29T15:59:45.649Z,3.23
2017-10-29T16:02:13.158Z,2.73
2017-10-29T16:04:40.653Z,3.10
2017-10-29T16:07:08.151Z,3.27
2017-10-29T16:09:35.664Z,3.73
2017-10-29T16:12:03.174Z,3.50
2017-10-29T16:14:30.683Z,3.50
2017-10-29T16:16:58.206Z,3.23
2017-10-29T16:19:25.718Z,3.60
2017-10-29T16:21:53.220Z,3.43
2017-10-29T16:24:20.732Z,3.43
2017-10-29T16:26:48.233Z,3.13
2017-10-29T16:29:15.742Z,3.50
2017-10-29T16:31:43.279Z,3.90
2017-10-29T16:34:10.802Z,3.30
2017-10-29T16:36:38.314Z,3.47
2017-10-29T16:39:05.818Z,3.10
2017-10-29T16:41:33.337Z,3.80
2017-10-29T16:44:00.843Z,4.30
2017-10-29T16:46:28.357Z,5.77
2017-10-29T16:48:55.987Z,6.07
2017-10-29T16:51:23.510Z,7.13
2017-10-29T16:53:50.996Z,5.83
2017-10-29T16:56:18.519Z,4.80
2017-10-29T16:58:46.063Z,5.07
2017-10-29T17:01:13.569Z,3.83
2017-10-29T17:03:41.083Z,3.80
2017-10-29T17:06:08.602Z,3.93
2017-10-29T17:08:36.105Z,4.43
2017-10-29T17:11:03.693Z,4.07
2017-10-29T17:13:31.239Z,4.37
2017-10-29T17:15:58.781Z,3.37
2017-10-29T17:18:26.300Z,3.43
2017-10-29T17:20:53.809Z,3.77
2017-10-29T17:23:21.330Z,4.80
2017-10-29T17:25:48.835Z,2.97
2017-10-29T17:28:16.354Z,3.97
2017-10-29T17:30:43.895Z,2.97
2017-10-29T17:33:11.415Z,3.80
2017-10-29T17:35:38.922Z,3.47
2017-10-29T17:38:06.473Z,3.43
2017-10-29T17:40:33.963Z,2.90
2017-10-29T17:43:01.472Z,2.57
2017-10-29T17:45:28.994Z,10.57
2017-10-29T17:47:56.505Z,3.83
2017-10-29T17:50:24.041Z,4.70
2017-10-29T17:52:51.556Z,3.50
2017-10-29T17:55:19.083Z,3.60
2017-10-29T17:57:47.566Z,3.53
2017-10-29T18:00:15.063Z,3.20
2017-10-29T18:02:42.570Z,3.43
2017-10-29T18:05:10.071Z,2.30
2017-10-29T18:07:37.647Z,3.10
2017-10-29T18:10:05.268Z,2.80
2017-10-29T18:12:32.766Z,4.10
2017-10-29T18:15:00.311Z,3.23
2017-10-29T18:17:27.807Z,8.93
2017-10-29T18:19:55.309Z,4.73
2017-10-29T18:22:23.196Z,4.27
2017-10-29T18:24:50.701Z,3.23
2017-10-29T18:27:18.194Z,5.07
2017-10-29T18:29:45.696Z,4.17
2017-10-29T18:32:13.204Z,4.97
2017-10-29T18:34:40.690Z,3.90
2017-10-29T18:37:08.189Z,4.10
2017-10-29T18:39:35.691Z,4.47
2017-10-29T18:42:03.329Z,4.60
2017-10-29T18:44:30.886Z,3.90
2017-10-29T18:46:58.410Z,5.00
2017-10-29T18:49:25.910Z,7.80
2017-10-29T18:51:53.408Z,5.07
2017-10-29T18:54:20.955Z,5.60
2017-10-29T18:56:48.547Z,4.50
2017-10-29T18:59:16.235Z,5.87
2017-10-29T19:01:43.907Z,5.60
2017-10-29T19:04:11.445Z,5.50
2017-10-29T19:06:38.978Z,3.80
2017-10-29T19:09:06.563Z,4.33
2017-10-29T19:11:34.085Z,5.17
2017-10-29T19:14:01.648Z,4.37
2017-10-29T19:16:29.174Z,4.67
2017-10-29T19:18:56.721Z,4.60
2017-10-29T19:21:24.290Z,5.50
2017-10-29T19:23:51.852Z,4.07
2017-10-29T19:26:19.464Z,5.20
2017-10-29T19:28:47.054Z,5.13
2017-10-29T19:31:14.604Z,4.30
2017-10-29T19:33:42.291Z,4.30
2017-10-29T19:36:09.848Z,4.50
2017-10-29T19:38:37.409Z,5.03
2017-10-29T19:41:05.055Z,4.00
2017-10-29T19:43:32.606Z,4.50
2017-10-29T19:46:00.125Z,4.80
2017-10-29T19:48:27.723Z,5.33
2017-10-29T19:50:55.255Z,10.50
2017-10-29T19:53:22.794Z,10.50
2017-10-29T19:55:50.304Z,5.63
2017-10-29T19:58:17.861Z,4.97
2017-10-29T20:00:45.391Z,6.83
2017-10-29T20:03:12.906Z,4.53
2017-10-29T20:05:40.462Z,3.80
2017-10-29T20:08:07.986Z,4.73
2017-10-29T20:10:35.554Z,5.27
2017-10-29T20:13:03.143Z,5.47
2017-10-29T20:15:30.687Z,5.67
2017-10-29T20:17:58.344Z,5.17
2017-10-29T20:20:25.910Z,4.67
2017-10-29T20:22:53.421Z,6.27
2017-10-29T20:25:20.927Z,5.63
2017-10-29T20:27:48.462Z,5.73
2017-10-29T20:30:16.014Z,4.67
2017-10-29T20:32:43.528Z,5.27
2017-10-29T20:35:11.062Z,5.03
2017-10-29T20:37:38.780Z,3.83
2017-10-29T20:40:06.306Z,5.57
2017-10-29T20:42:33.825Z,5.40
2017-10-29T20:45:01.424Z,5.63
2017-10-29T20:47:28.930Z,4.93
2017-10-29T20:49:56.467Z,4.83
2017-10-29T20:52:23.972Z,5.13
2017-10-29T20:54:51.476Z,5.57
2017-10-29T20:57:19.004Z,5.00
2017-10-29T20:59:46.522Z,5.40
2017-10-29T21:02:14.028Z,5.53
2017-10-29T21:04:41.563Z,5.67
2017-10-29T21:07:09.212Z,6.23
2017-10-29T21:09:36.738Z,5.50
2017-10-29T21:12:04.273Z,5.70
2017-10-29T21:14:31.769Z,5.67
2017-10-29T21:16:59.279Z,4.77
2017-10-29T21:19:26.889Z,5.47
2017-10-29T21:21:54.392Z,5.87
2017-10-29T21:24:21.894Z,5.33
2017-10-29T21:26:49.398Z,5.60
2017-10-29T21:29:16.927Z,5.13
2017-10-29T21:31:44.447Z,4.97
2017-10-29T21:34:11.956Z,5.10
2017-10-29T21:36:39.469Z,5.23
2017-10-29T21:39:06.990Z,5.60
2017-10-29T21:41:34.521Z,5.90
2017-10-29T21:44:02.041Z,5.30
2017-10-29T21:46:29.550Z,5.77
2017-10-29T21:48:57.052Z,7.10
2017-10-29T21:51:24.559Z,7.53
2017-10-29T21:53:52.141Z,5.57
2017-10-29T21:56:19.656Z,7.07
2017-10-29T21:58:47.148Z,6.50
2017-10-29T22:01:14.645Z,5.77
2017-10-29T22:03:42.167Z,5.30
2017-10-29T22:06:09.673Z,5.90
2017-10-29T22:08:37.194Z,4.70
2017-10-29T22:11:04.718Z,5.60
2017-10-29T22:13:32.221Z,5.23
2017-10-29T22:15:59.824Z,5.70
2017-10-29T22:18:27.327Z,5.10
2017-10-29T22:20:54.871Z,4.67
2017-10-29T22:23:22.407Z,5.40
2017-10-29T22:25:49.948Z,5.10
2017-10-29T22:28:17.461Z,4.37
2017-10-29T22:30:44.956Z,6.10
2017-10-29T22:33:12.462Z,4.27
2017-10-29T22:35:39.964Z,4.80
2017-10-29T22:38:07.486Z,4.40
2017-10-29T22:40:34.970Z,3.47
2017-10-29T22:43:02.463Z,3.80
2017-10-29T22:45:29.983Z,4.10
2017-10-29T22:47:57.575Z,4.10
2017-10-29T22:50:25.072Z,3.80
2017-10-29T22:52:52.591Z,3.83
2017-10-29T22:55:20.111Z,3.93
2017-10-29T22:57:47.630Z,6.47
2017-10-29T23:00:15.264Z,3.50
2017-10-29T23:02:42.790Z,4.50
2017-10-29T23:05:10.291Z,3.77
2017-10-29T23:07:40.352Z,3.57
2017-10-29T23:10:07.857Z,4.03
2017-10-29T23:12:35.355Z,3.80
2017-10-29T23:15:02.901Z,3.70
2017-10-29T23:17:30.395Z,3.57
2017-10-29T23:19:57.906Z,3.90
2017-10-29T23:22:25.396Z,3.70
2017-10-29T23:24:52.889Z,3.93
2017-10-29T23:27:20.374Z,3.07
2017-10-29T23:29:47.865Z,3.67
2017-10-29T23:32:15.379Z,4.40
2017-10-29T23:34:42.882Z,3.70
2017-10-29T23:37:10.387Z,4.90
2017-10-29T23:39:37.949Z,3.23
2017-10-29T23:42:05.469Z,4.20
2017-10-29T23:44:32.968Z,4.97
2017-10-29T23:47:00.492Z,3.97
2017-10-29T23:49:27.991Z,4.13
2017-10-29T23:51:55.481Z,4.10
2017-10-29T23:54:22.976Z,4.10
2017-10-29T23:56:50.475Z,4.37
2017-10-29T23:59:17.975Z,4.40
